Time;durP1;ratioP1;P1;durP2;ratioP2;P2;SDS_P1;SDS_P2;PMS_P1;PMS_P2;Temp;Humidity;BMP_temperature;BMP_pressure;BME280_temperature;BME280_humidity;BME280_pressure;Samples;Min_cycle;Max_cycle;Signal;HPM_P1;HPM_P2
2022/07/06 00:01:28;;;;;;;;;2.50;2.50;;;;;19.87;45.28;101919.31;4872707;29;45626;-87
2022/07/06 00:03:53;;;;;;;;;4.00;3.00;;;;;19.76;46.33;101906.13;4889088;29;45508;-84
2022/07/06 00:06:18;;;;;;;;;2.50;2.00;;;;;19.82;45.71;101915.38;4886141;29;45474;-86
2022/07/06 00:12:06;;;;;;;;;4.00;4.00;;;;;19.74;46.68;101916.09;4884061;29;45574;-85
2022/07/06 00:14:32;;;;;;;;;3.50;3.50;;;;;19.69;46.46;101913.00;4885385;29;46957;-85
2022/07/06 00:16:57;;;;;;;;;2.50;2.00;;;;;19.67;46.65;101901.63;4886790;29;45748;-83
2022/07/06 00:19:23;;;;;;;;;2.00;2.00;;;;;19.69;46.84;101919.16;4886809;29;45626;-87
2022/07/06 00:21:48;;;;;;;;;3.50;3.00;;;;;19.56;47.14;101893.75;4887120;29;45602;-82
2022/07/06 00:27:36;;;;;;;;;2.00;2.00;;;;;19.55;46.89;101905.38;4888111;29;45853;-82
2022/07/06 00:30:01;;;;;;;;;3.00;3.00;;;;;19.54;46.88;101907.19;4889170;29;45579;-85
2022/07/06 00:32:27;;;;;;;;;3.00;3.00;;;;;19.49;46.80;101901.44;4890726;29;45914;-87
2022/07/06 00:34:52;;;;;;;;;3.00;3.00;;;;;19.50;47.47;101913.75;4868122;29;48212;-84
2022/07/06 00:37:18;;;;;;;;;3.25;3.25;;;;;19.49;47.52;101911.22;4884812;29;45509;-89
2022/07/06 00:39:43;;;;;;;;;3.00;3.00;;;;;19.39;47.81;101891.72;4867365;29;45830;-87
2022/07/06 00:42:09;;;;;;;;;5.00;3.25;;;;;19.41;47.56;101897.75;4884659;29;45646;-87
2022/07/06 00:44:34;;;;;;;;;3.00;3.00;;;;;19.33;47.76;101886.94;4866896;29;47772;-82
2022/07/06 00:47:00;;;;;;;;;3.00;2.25;;;;;19.36;47.91;101884.88;4883265;29;45677;-87
2022/07/06 00:52:11;;;;;;;;;4.00;3.00;;;;;19.44;47.49;101906.28;4882881;29;45569;-85
2022/07/06 00:58:01;;;;;;;;;3.00;3.00;;;;;19.44;47.55;101897.47;4881450;29;45755;-87
2022/07/06 01:00:28;;;;;;;;;3.50;3.50;;;;;19.46;47.81;101899.06;4883890;29;45869;-83
2022/07/06 01:02:54;;;;;;;;;3.00;3.00;;;;;19.47;48.27;101903.41;4884492;29;45489;-88
2022/07/06 01:05:20;;;;;;;;;3.00;3.00;;;;;19.46;47.86;101909.69;4873416;29;46829;-82
2022/07/06 01:07:48;;;;;;;;;3.75;3.00;;;;;19.44;47.54;101900.97;4891142;29;45487;-83
2022/07/06 01:10:15;;;;;;;;;3.00;3.00;;;;;19.41;47.40;101895.94;4889838;29;45755;-81
2022/07/06 01:12:43;;;;;;;;;3.00;2.00;;;;;19.39;48.14;101887.25;4890166;29;45682;-83
2022/07/06 01:15:12;;;;;;;;;3.75;3.75;;;;;19.45;48.00;101908.00;4888948;29;45532;-81
2022/07/06 01:17:41;;;;;;;;;5.75;4.75;;;;;19.39;48.11;101900.53;4890800;29;45784;-84
2022/07/06 01:20:12;;;;;;;;;4.00;4.00;;;;;19.37;48.68;101899.84;4891216;29;45474;-85
2022/07/06 01:22:38;;;;;;;;;3.00;3.00;;;;;19.41;48.12;101906.56;4891361;29;45664;-84
2022/07/06 01:25:05;;;;;;;;;3.00;3.00;;;;;19.41;48.03;101911.03;4893482;29;45713;-87
2022/07/06 01:27:32;;;;;;;;;3.75;3.00;;;;;19.40;48.04;101914.66;4898820;29;46500;-88
2022/07/06 01:29:57;;;;;;;;;2.50;2.50;;;;;19.34;48.16;101904.56;4897601;29;45571;-84
2022/07/06 01:32:22;;;;;;;;;3.25;2.50;;;;;19.26;48.36;101903.44;4898217;29;45577;-87
2022/07/06 01:34:48;;;;;;;;;4.00;3.25;;;;;19.20;48.58;101893.34;4894210;29;45524;-85
2022/07/06 01:37:13;;;;;;;;;4.75;4.00;;;;;19.24;48.81;101896.56;4873430;29;47019;-87
2022/07/06 01:43:00;;;;;;;;;4.75;4.50;;;;;19.21;48.48;101910.13;4882431;29;45665;-85
2022/07/06 01:45:26;;;;;;;;;3.50;3.50;;;;;19.15;48.37;101897.38;4864314;29;48612;-81
2022/07/06 01:47:51;;;;;;;;;4.00;4.00;;;;;19.08;48.31;101898.88;4880914;29;46014;-80
2022/07/06 01:50:17;;;;;;;;;4.00;4.00;;;;;19.07;49.15;101902.50;4880755;29;45553;-80
2022/07/06 01:52:42;;;;;;;;;3.00;3.00;;;;;19.05;48.64;101904.44;4881091;29;45599;-80
2022/07/06 01:58:29;;;;;;;;;2.50;2.50;;;;;18.98;49.17;101893.50;4882918;29;45636;-86
2022/07/06 02:00:55;;;;;;;;;3.50;3.50;;;;;19.02;49.49;101908.19;4887070;29;45626;-83
2022/07/06 02:03:21;;;;;;;;;4.00;4.00;;;;;18.96;49.42;101891.94;4884554;29;45644;-85
2022/07/06 02:05:46;;;;;;;;;5.00;4.75;;;;;19.01;49.42;101905.66;4881666;29;45569;-84
2022/07/06 02:08:12;;;;;;;;;4.75;4.75;;;;;18.98;49.22;101900.63;4881294;29;46449;-80
2022/07/06 02:10:37;;;;;;;;;3.25;3.25;;;;;18.98;49.53;101901.47;4880859;29;45520;-82
2022/07/06 02:13:02;;;;;;;;;4.75;4.00;;;;;18.95;49.57;101899.06;4881014;29;45665;-85
2022/07/06 02:15:28;;;;;;;;;3.50;3.50;;;;;18.84;49.30;101889.34;4880533;29;45592;-81
2022/07/06 02:17:54;;;;;;;;;3.25;3.25;;;;;18.83;49.37;101878.88;4880889;29;45699;-81
2022/07/06 02:20:20;;;;;;;;;4.50;4.50;;;;;18.83;49.71;101894.81;4882347;29;45503;-79
2022/07/06 02:22:45;;;;;;;;;4.75;4.00;;;;;18.86;49.65;101895.41;4885349;29;45789;-83
2022/07/06 02:28:32;;;;;;;;;4.50;3.00;;;;;18.77;49.88;101890.88;4888603;29;45730;-84
2022/07/06 02:30:58;;;;;;;;;5.25;4.00;;;;;18.79;49.78;101888.06;4888259;29;45515;-82
2022/07/06 02:33:23;;;;;;;;;3.00;3.00;;;;;18.70;49.75;101868.47;4888122;29;45694;-83
2022/07/06 02:35:49;;;;;;;;;4.25;3.75;;;;;18.70;49.99;101870.28;4870713;29;47452;-83
2022/07/06 02:38:14;;;;;;;;;3.75;3.75;;;;;18.72;49.88;101868.34;4870930;29;48048;-82
2022/07/06 02:44:02;;;;;;;;;4.50;4.50;;;;;18.79;49.97;101880.09;4887786;29;45712;-81
2022/07/06 02:46:27;;;;;;;;;3.75;3.50;;;;;18.79;50.06;101878.28;4886071;29;46619;-82
2022/07/06 02:48:53;;;;;;;;;5.25;4.00;;;;;18.70;49.92;101872.94;4884436;29;45617;-82
2022/07/06 02:51:18;;;;;;;;;4.00;4.00;;;;;18.70;49.82;101878.25;4888014;29;45625;-82
2022/07/06 02:53:43;;;;;;;;;4.00;4.00;;;;;18.68;50.23;101880.16;4886706;29;45485;-82
2022/07/06 02:56:09;;;;;;;;;6.50;5.00;;;;;18.76;49.97;101883.88;4887617;29;45638;-85
2022/07/06 02:58:34;;;;;;;;;6.25;5.00;;;;;18.75;50.13;101897.28;4887504;29;46176;-85
2022/07/06 03:00:59;;;;;;;;;5.00;5.00;;;;;18.65;50.63;101889.25;4889106;29;45631;-86
2022/07/06 03:03:25;;;;;;;;;4.00;4.00;;;;;18.67;49.95;101891.78;4888491;29;45422;-85
2022/07/06 03:05:50;;;;;;;;;4.00;4.00;;;;;18.63;50.24;101879.72;4888045;29;45472;-83
2022/07/06 03:08:16;;;;;;;;;4.75;4.75;;;;;18.60;50.24;101882.66;4887618;29;46071;-85
2022/07/06 03:14:04;;;;;;;;;5.00;5.00;;;;;18.66;50.04;101904.22;4889900;29;45666;-83
2022/07/06 03:16:30;;;;;;;;;6.00;5.50;;;;;18.58;50.26;101892.53;4888756;29;47992;-85
2022/07/06 03:18:57;;;;;;;;;4.75;4.75;;;;;18.61;50.61;101911.72;4890528;29;45960;-83
2022/07/06 03:21:24;;;;;;;;;4.00;4.00;;;;;18.65;50.07;101909.66;4889879;29;45548;-83
2022/07/06 03:23:49;;;;;;;;;6.25;4.00;;;;;18.49;50.36;101878.22;4891130;29;45678;-83
2022/07/06 03:26:14;;;;;;;;;5.25;5.00;;;;;18.54;50.38;101899.94;4891939;29;45830;-86
2022/07/06 03:28:40;;;;;;;;;5.00;5.00;;;;;18.51;50.93;101891.38;4890471;29;45641;-82
2022/07/06 03:31:05;;;;;;;;;5.25;5.25;;;;;18.50;50.86;101889.69;4890628;29;45640;-82
2022/07/06 03:33:31;;;;;;;;;3.50;3.50;;;;;18.45;50.78;101893.56;4892360;29;45116;-84
2022/07/06 03:35:57;;;;;;;;;4.25;4.00;;;;;18.53;51.12;101910.63;4889122;29;45642;-82
2022/07/06 03:38:22;;;;;;;;;5.00;5.00;;;;;18.44;50.72;101902.50;4888896;29;45454;-85
2022/07/06 03:44:12;;;;;;;;;5.50;5.00;;;;;18.47;51.35;101917.31;4883704;29;45765;-81
2022/07/06 03:47:01;;;;;;;;;4.00;4.00;;;;;18.39;51.10;101898.53;4883903;29;45567;-81
2022/07/06 03:49:27;;;;;;;;;5.00;5.00;;;;;18.34;50.93;101895.44;4811695;29;47321;-81
2022/07/06 03:51:53;;;;;;;;;5.00;5.00;;;;;18.41;50.95;101915.16;4825743;29;45589;-80
2022/07/06 03:54:18;;;;;;;;;4.75;4.75;;;;;18.43;51.21;101924.69;4824482;29;45750;-81
2022/07/06 03:56:44;;;;;;;;;6.25;6.00;;;;;18.42;51.11;101928.31;4824274;29;45637;-81
2022/07/06 03:59:09;;;;;;;;;6.00;6.00;;;;;18.38;51.67;101918.06;4786158;29;1137421;-81
2022/07/06 04:01:34;;;;;;;;;5.00;4.00;;;;;18.36;51.45;101912.88;4830573;29;45542;-81
2022/07/06 04:04:00;;;;;;;;;4.75;4.00;;;;;18.37;51.55;101914.56;4809054;29;45709;-81
2022/07/06 04:06:26;;;;;;;;;6.75;6.00;;;;;18.40;51.45;101905.53;4825507;29;46565;-80
2022/07/06 04:08:51;;;;;;;;;5.00;5.00;;;;;18.44;51.50;101926.38;4827123;29;45694;-86
2022/07/06 04:14:38;;;;;;;;;4.00;4.00;;;;;18.33;51.81;101926.41;4826393;29;45716;-81
2022/07/06 04:17:51;;;;;;;;;5.25;5.00;;;;;18.25;51.60;101920.88;4828359;29;46624;-83
2022/07/06 04:19:50;;;;;;;;;6.00;5.25;;;;;18.23;52.28;101925.50;4832309;29;46142;-82
2022/07/06 04:22:15;;;;;;;;;7.00;6.00;;;;;18.16;51.89;101924.31;4832232;29;45667;-81
2022/07/06 04:24:40;;;;;;;;;5.00;5.00;;;;;18.06;52.02;101907.47;4831679;29;45777;-81
2022/07/06 04:27:06;;;;;;;;;6.25;6.00;;;;;18.01;52.30;101912.31;4871841;29;45752;-81
2022/07/06 04:29:31;;;;;;;;;5.75;5.75;;;;;17.94;52.91;101917.25;4884545;29;45899;-79
2022/07/06 04:31:57;;;;;;;;;5.25;5.00;;;;;17.94;52.88;101927.88;4884228;29;45608;-85
2022/07/06 04:34:41;;;;;;;;;;;;;;;;;;;;;
2022/07/06 04:37:07;;;;;;;;;8.25;7.00;;;;;17.72;52.83;101906.69;4882834;29;76943;-81
2022/07/06 04:39:32;;;;;;;;;4.00;4.00;;;;;17.82;53.48;101933.31;4885856;29;46150;-85
2022/07/06 04:41:57;;;;;;;;;5.75;5.00;;;;;17.73;53.31;101916.34;4884632;29;45493;-81
2022/07/06 04:44:23;;;;;;;;;5.00;5.00;;;;;17.77;53.44;101932.84;4884364;29;45697;-83
2022/07/06 04:46:48;;;;;;;;;6.75;6.00;;;;;17.65;53.85;101921.44;4882982;29;46623;-81
2022/07/06 04:49:14;;;;;;;;;6.00;6.00;;;;;17.63;53.79;101919.84;4882680;29;46356;-82
2022/07/06 04:51:39;;;;;;;;;5.50;5.25;;;;;17.62;53.74;101919.00;4884177;29;45606;-82
2022/07/06 04:54:05;;;;;;;;;7.75;5.75;;;;;17.57;53.75;101914.03;4883961;29;45553;-81
2022/07/06 04:59:52;;;;;;;;;7.00;6.00;;;;;17.67;54.01;101937.19;4881110;29;45543;-84
2022/07/06 05:02:18;;;;;;;;;7.25;6.00;;;;;17.69;54.25;101941.41;4882622;29;45556;-81
2022/07/06 05:04:45;;;;;;;;;6.25;6.25;;;;;17.69;53.88;101927.31;4883465;29;45616;-81
2022/07/06 05:07:10;;;;;;;;;7.75;7.75;;;;;17.70;54.19;101932.50;4884302;29;46516;-82
2022/07/06 05:09:35;;;;;;;;;5.75;5.75;;;;;17.63;54.20;101925.16;4868577;29;48081;-82
2022/07/06 05:15:23;;;;;;;;;9.00;8.00;;;;;17.69;54.48;101932.63;4885199;29;45493;-86
2022/07/06 05:17:48;;;;;;;;;10.00;9.00;;;;;17.66;54.53;101924.91;4884741;29;45555;-83
2022/07/06 05:20:14;;;;;;;;;9.75;9.00;;;;;17.65;54.68;101931.19;4887090;29;46274;-85
2022/07/06 05:22:39;;;;;;;;;8.00;7.25;;;;;17.69;54.48;101941.41;4870481;29;46113;-81
2022/07/06 05:25:05;;;;;;;;;10.50;8.25;;;;;17.59;54.31;101919.22;4868362;29;45580;-81
2022/07/06 05:27:30;;;;;;;;;9.25;9.00;;;;;17.60;54.45;101929.72;4883422;29;45653;-81
2022/07/06 05:29:56;;;;;;;;;8.25;7.75;;;;;17.69;54.59;101929.97;4884004;29;45630;-85
2022/07/06 05:32:21;;;;;;;;;6.75;6.75;;;;;17.72;54.55;101933.22;4883149;29;45503;-82
2022/07/06 05:34:46;;;;;;;;;8.75;8.00;;;;;17.72;54.03;101922.59;4882484;29;45732;-82
2022/07/06 05:37:12;;;;;;;;;9.00;8.25;;;;;17.79;54.24;101931.75;4884203;29;46745;-83
2022/07/06 05:39:38;;;;;;;;;7.00;7.00;;;;;17.81;54.19;101939.59;4885017;29;46446;-85
2022/07/06 05:45:25;;;;;;;;;9.00;8.00;;;;;17.87;53.99;101936.44;4890400;29;45568;-85
2022/07/06 05:50:36;;;;;;;;;8.25;7.50;;;;;17.90;54.50;101931.75;4846708;29;45920;-85
2022/07/06 05:53:04;;;;;;;;;10.50;7.25;;;;;17.95;54.14;101945.47;4844832;29;45679;-82
2022/07/06 05:55:31;;;;;;;;;8.50;7.50;;;;;17.90;53.95;101933.53;4842539;29;45953;-82
2022/07/06 05:57:57;;;;;;;;;10.00;8.25;;;;;18.00;54.10;101953.91;4843739;29;45727;-83
2022/07/06 06:00:24;;;;;;;;;9.00;7.50;;;;;18.04;54.28;101965.94;4840790;29;46205;-80
2022/07/06 06:02:49;;;;;;;;;7.75;7.75;;;;;18.03;54.00;101968.69;4841746;29;45582;-81
2022/07/06 06:05:16;;;;;;;;;9.50;9.50;;;;;18.03;53.62;101953.63;4841709;29;45695;-82
2022/07/06 06:07:43;;;;;;;;;9.75;9.25;;;;;18.09;54.03;101968.22;4841237;29;45772;-81
2022/07/06 06:10:11;;;;;;;;;8.00;6.75;;;;;18.05;53.81;101958.81;4841338;29;46033;-80
2022/07/06 06:15:57;;;;;;;;;7.00;6.50;;;;;18.16;54.31;101964.09;4846827;29;45733;-80
2022/07/06 06:18:23;;;;;;;;;10.50;9.50;;;;;18.18;54.16;101964.84;4844113;29;45969;-80
2022/07/06 06:20:50;;;;;;;;;9.00;9.00;;;;;18.22;53.96;101962.75;4826392;29;46165;-81
2022/07/06 06:23:17;;;;;;;;;10.00;8.50;;;;;18.21;53.47;101953.09;4841794;29;45877;-81
2022/07/06 06:25:43;;;;;;;;;9.25;9.00;;;;;18.23;54.18;101957.34;4843904;29;45657;-87
2022/07/06 06:31:30;;;;;;;;;10.00;8.75;;;;;18.41;53.36;101958.47;4887246;29;45845;-82
2022/07/06 06:33:56;;;;;;;;;9.00;8.25;;;;;18.43;53.27;101951.22;4885435;29;45645;-81
2022/07/06 06:36:21;;;;;;;;;8.75;7.75;;;;;18.50;53.44;101962.19;4865821;29;45905;-84
2022/07/06 06:38:47;;;;;;;;;7.75;7.50;;;;;18.44;53.55;101944.09;4881641;29;46467;-80
2022/07/06 06:41:13;;;;;;;;;7.25;7.25;;;;;18.54;53.57;101960.97;4881507;29;46433;-81
2022/07/06 06:43:40;;;;;;;;;9.25;8.75;;;;;18.57;53.05;101951.94;4885180;29;45511;-83
2022/07/06 06:46:05;;;;;;;;;9.00;9.00;;;;;18.53;53.27;101937.19;4883883;29;45555;-81
2022/07/06 06:48:31;;;;;;;;;10.00;9.00;;;;;18.66;52.55;101961.78;4887225;29;45584;-84
2022/07/06 06:50:58;;;;;;;;;9.00;8.50;;;;;18.64;52.54;101959.25;4885417;29;46041;-83
2022/07/06 06:53:25;;;;;;;;;9.75;9.00;;;;;18.69;52.21;101959.69;4883925;29;45741;-89
2022/07/06 06:55:50;;;;;;;;;9.75;9.00;;;;;18.79;51.93;101971.22;4885441;29;45562;-82
2022/07/06 07:01:52;;;;;;;;;7.50;6.25;;;;;18.80;51.52;101969.41;4879328;29;45818;-78
2022/07/06 07:04:17;;;;;;;;;10.00;7.75;;;;;18.90;51.91;101975.63;4883325;29;45862;-79
2022/07/06 07:06:43;;;;;;;;;6.75;6.00;;;;;18.88;51.71;101966.13;4882523;29;45738;-80
2022/07/06 07:09:08;;;;;;;;;7.00;7.00;;;;;18.92;51.80;101968.41;4882844;29;46688;-79
2022/07/06 07:11:34;;;;;;;;;8.50;8.00;;;;;18.96;51.78;101967.16;4862777;29;48248;-80
2022/07/06 07:14:00;;;;;;;;;8.00;8.00;;;;;19.07;51.15;101977.72;4879264;29;46322;-80
2022/07/06 07:16:26;;;;;;;;;9.25;7.25;;;;;19.13;51.28;101976.34;4878969;29;45584;-79
2022/07/06 07:18:52;;;;;;;;;8.50;7.75;;;;;19.11;51.39;101973.81;4882159;29;45573;-78
2022/07/06 07:21:17;;;;;;;;;8.00;8.00;;;;;19.20;50.52;101975.72;4886416;29;45507;-85
2022/07/06 07:23:43;;;;;;;;;10.00;8.00;;;;;19.21;50.34;101969.44;4887289;29;45540;-84
2022/07/06 07:26:08;;;;;;;;;10.00;8.00;;;;;19.25;49.77;101965.53;4888141;29;45797;-83
2022/07/06 07:31:56;;;;;;;;;8.25;6.75;;;;;19.44;49.74;101978.06;4886611;29;45667;-84
2022/07/06 07:34:21;;;;;;;;;7.25;7.00;;;;;19.48;49.78;101973.38;4870366;29;45551;-83
2022/07/06 07:36:46;;;;;;;;;2.25;1.50;;;;;19.49;49.80;101961.72;4885496;29;45525;-82
2022/07/06 07:39:12;;;;;;;;;7.50;7.50;;;;;19.57;49.26;101975.22;4879912;29;46874;-80
2022/07/06 07:41:37;;;;;;;;;9.00;8.00;;;;;19.64;49.01;101985.19;4879211;29;45425;-78
2022/07/06 07:44:03;;;;;;;;;5.25;5.25;;;;;19.55;48.63;101951.41;4879331;29;45573;-77
2022/07/06 07:46:28;;;;;;;;;7.50;7.00;;;;;19.74;48.51;101979.06;4878790;29;45713;-79
2022/07/06 07:48:54;;;;;;;;;7.25;7.00;;;;;19.78;48.45;101968.00;4879235;29;46809;-77
2022/07/06 07:51:19;;;;;;;;;8.00;6.00;;;;;19.74;47.98;101958.63;4862133;29;46926;-79
2022/07/06 07:53:45;;;;;;;;;7.00;6.50;;;;;19.85;48.01;101969.16;4879367;29;45587;-86
2022/07/06 07:56:10;;;;;;;;;9.00;8.25;;;;;19.89;47.92;101970.56;4879707;29;45769;-81
2022/07/06 08:01:58;;;;;;;;;7.50;7.00;;;;;20.01;47.60;101972.16;4878110;29;46574;-82
2022/07/06 08:04:23;;;;;;;;;5.25;5.25;;;;;19.98;47.26;101953.78;4879044;29;45671;-83
2022/07/06 08:06:49;;;;;;;;;6.25;6.25;;;;;20.07;46.94;101968.94;4879421;29;45777;-80
2022/07/06 08:09:16;;;;;;;;;6.25;5.75;;;;;20.13;47.00;101963.03;4879771;29;45617;-82
2022/07/06 08:11:42;;;;;;;;;7.50;6.00;;;;;20.18;46.89;101967.97;4880797;29;45583;-80
2022/07/06 08:17:30;;;;;;;;;6.00;6.00;;;;;20.20;47.16;101968.66;4879264;29;45726;-80
2022/07/06 08:19:55;;;;;;;;;10.00;9.25;;;;;20.25;46.68;101968.25;4879020;29;46435;-79
2022/07/06 08:22:21;;;;;;;;;8.00;7.00;;;;;20.24;46.55;101956.78;4882498;29;45606;-78
2022/07/06 08:24:46;;;;;;;;;6.75;6.00;;;;;20.29;46.79;101964.34;4882305;29;45654;-79
2022/07/06 08:27:13;;;;;;;;;5.25;5.00;;;;;20.32;46.63;101970.25;4882386;29;45865;-83
2022/07/06 08:29:38;;;;;;;;;6.25;6.25;;;;;20.33;46.28;101966.63;4864874;29;47117;-81
2022/07/06 08:32:04;;;;;;;;;5.00;4.75;;;;;20.41;46.41;101965.91;4864682;29;45597;-78
2022/07/06 08:34:29;;;;;;;;;7.50;5.25;;;;;20.45;46.52;101967.34;4881445;29;45576;-78
2022/07/06 08:36:56;;;;;;;;;6.00;5.00;;;;;20.43;46.29;101958.63;4880285;29;45531;-78
2022/07/06 08:39:22;;;;;;;;;6.00;6.00;;;;;20.53;46.08;101964.81;4864651;29;46562;-79
2022/07/06 08:41:48;;;;;;;;;7.75;6.25;;;;;20.51;46.31;101951.63;4881526;29;45764;-77
2022/07/06 08:47:37;;;;;;;;;7.00;6.25;;;;;20.67;45.54;101968.88;4881196;29;45719;-79
2022/07/06 08:50:04;;;;;;;;;9.00;6.50;;;;;20.70;45.54;101968.59;4881473;29;45606;-79
2022/07/06 08:52:30;;;;;;;;;7.75;6.25;;;;;20.74;45.33;101972.63;4881130;29;46095;-80
2022/07/06 08:54:55;;;;;;;;;7.50;6.50;;;;;20.78;45.23;101960.75;4881602;29;45681;-81
2022/07/06 08:57:21;;;;;;;;;6.75;5.25;;;;;20.83;44.98;101970.00;4884170;29;46024;-83
2022/07/06 08:59:46;;;;;;;;;5.75;5.75;;;;;20.84;44.79;101960.13;4881839;29;45661;-79
2022/07/06 09:02:15;;;;;;;;;5.50;5.50;;;;;20.91;45.12;101955.94;4880589;29;45734;-79
2022/07/06 09:04:42;;;;;;;;;6.75;4.50;;;;;20.97;44.82;101947.38;4864532;29;45609;-78
2022/07/06 09:07:08;;;;;;;;;7.75;5.75;;;;;21.03;44.62;101951.28;4881611;29;45614;-80
2022/07/06 09:09:36;;;;;;;;;5.25;4.50;;;;;21.03;44.52;101945.97;4880641;29;45649;-85
2022/07/06 09:12:02;;;;;;;;;5.75;5.00;;;;;21.08;44.10;101952.53;4865304;29;46425;-84
2022/07/06 09:17:49;;;;;;;;;6.00;5.50;;;;;21.20;44.02;101958.56;4881931;29;45668;-81
2022/07/06 09:20:14;;;;;;;;;5.00;5.00;;;;;21.23;43.89;101942.28;4863435;29;47350;-81
2022/07/06 09:22:40;;;;;;;;;5.00;4.50;;;;;21.32;44.07;101952.09;4880852;29;46352;-81
2022/07/06 09:25:11;;;;;;;;;3.25;3.25;;;;;21.33;42.83;101951.06;4880755;29;45838;-81
2022/07/06 09:27:43;;;;;;;;;3.50;3.50;;;;;21.36;42.53;101937.47;4881431;29;45684;-81
2022/07/06 09:30:10;;;;;;;;;4.00;4.00;;;;;21.47;42.50;101952.44;4885541;29;46708;-82
2022/07/06 09:32:39;;;;;;;;;3.25;3.25;;;;;21.48;42.46;101940.78;4883442;29;45637;-81
2022/07/06 09:35:05;;;;;;;;;4.00;3.25;;;;;21.49;42.70;101937.97;4880957;29;45685;-81
2022/07/06 09:37:30;;;;;;;;;3.75;3.00;;;;;21.55;42.79;101940.03;4882145;29;45725;-81
2022/07/06 09:39:56;;;;;;;;;6.00;4.00;;;;;21.57;42.15;101938.06;4864636;29;48675;-81
2022/07/06 09:42:26;;;;;;;;;5.50;5.00;;;;;21.65;42.55;101938.16;4882666;29;45869;-81
2022/07/06 09:48:18;;;;;;;;;4.00;4.00;;;;;21.70;41.66;101930.56;4904424;29;45150;-82
2022/07/06 09:51:03;;;;;;;;;3.00;3.00;;;;;21.75;41.50;101936.28;4869848;29;46933;-83
2022/07/06 09:53:29;;;;;;;;;3.50;3.00;;;;;21.77;41.05;101936.97;4880806;29;46110;-82
2022/07/06 09:55:58;;;;;;;;;3.00;3.00;;;;;21.76;40.56;101935.28;4880358;29;45796;-81
2022/07/06 09:58:24;;;;;;;;;3.25;3.25;;;;;21.87;41.14;101944.91;4880582;29;45863;-81
2022/07/06 10:00:50;;;;;;;;;4.00;3.25;;;;;21.93;41.31;101946.16;4880264;29;46444;-81
2022/07/06 10:03:17;;;;;;;;;4.00;3.00;;;;;21.96;41.50;101954.75;4878175;29;48122;-80
2022/07/06 10:05:48;;;;;;;;;4.00;3.50;;;;;21.93;40.81;101933.66;4880074;29;45842;-80
2022/07/06 10:08:15;;;;;;;;;3.50;3.50;;;;;21.99;41.46;101932.25;4877440;29;45671;-81
2022/07/06 10:10:41;;;;;;;;;2.75;2.75;;;;;22.08;40.81;101948.19;4879094;29;45491;-81
2022/07/06 10:13:09;;;;;;;;;5.00;4.00;;;;;22.07;41.03;101935.00;4879692;29;45446;-80
2022/07/06 10:15:36;;;;;;;;;4.00;4.00;;;;;22.10;41.19;101946.22;4863567;29;45828;-82
2022/07/06 10:18:05;;;;;;;;;5.75;4.50;;;;;22.11;40.97;101926.53;4880847;29;45834;-83
2022/07/06 10:20:33;;;;;;;;;4.00;4.00;;;;;22.16;40.74;101945.63;4880063;29;45882;-82
2022/07/06 10:23:00;;;;;;;;;5.00;4.25;;;;;22.21;40.58;101929.13;4880508;29;45933;-79
2022/07/06 10:25:26;;;;;;;;;4.50;4.00;;;;;22.22;40.04;101928.16;4879885;29;45728;-82
2022/07/06 10:27:53;;;;;;;;;5.00;4.75;;;;;22.22;40.14;101919.28;4880067;29;45623;-84
2022/07/06 10:33:41;;;;;;;;;4.00;4.00;;;;;22.43;40.33;101933.19;4880093;29;46006;-85
2022/07/06 10:36:07;;;;;;;;;4.75;4.75;;;;;22.44;40.49;101930.34;4880178;29;45674;-81
2022/07/06 10:38:35;;;;;;;;;3.00;3.00;;;;;22.56;40.43;101933.63;4862412;29;45911;-82
2022/07/06 10:41:06;;;;;;;;;4.75;4.25;;;;;22.54;40.29;101930.28;4879902;29;46587;-81
2022/07/06 10:43:33;;;;;;;;;4.75;4.00;;;;;22.60;40.44;101941.19;4880231;29;46073;-85
2022/07/06 10:45:58;;;;;;;;;5.00;4.75;;;;;22.72;40.03;101949.84;4880538;29;45712;-83
2022/07/06 10:48:24;;;;;;;;;5.00;5.00;;;;;22.74;39.73;101930.94;4864089;29;45486;-81
2022/07/06 10:50:54;;;;;;;;;5.00;5.00;;;;;22.76;39.77;101939.66;4863498;29;48432;-81
2022/07/06 10:53:23;;;;;;;;;5.00;5.00;;;;;22.87;40.37;101947.44;4882129;29;46161;-83
2022/07/06 10:55:51;;;;;;;;;2.25;2.25;;;;;22.89;40.24;101940.06;4883440;29;45810;-83
2022/07/06 11:05:43;;;;;;;;;5.25;4.00;;;;;23.07;39.98;101927.50;4874839;29;45867;-79
2022/07/06 11:08:10;;;;;;;;;5.00;4.75;;;;;23.10;39.72;101935.22;4880296;29;45761;-81
2022/07/06 11:10:49;;;;;;;;;5.00;5.00;;;;;23.15;39.47;101934.75;4880853;29;45803;-80
2022/07/06 11:13:27;;;;;;;;;5.25;5.25;;;;;23.17;39.88;101925.56;4881690;29;45682;-80
2022/07/06 11:19:18;;;;;;;;;6.00;6.00;;;;;23.27;40.11;101928.94;4879374;29;45667;-82
2022/07/06 11:21:57;;;;;;;;;7.75;7.50;;;;;23.31;39.74;101916.13;4881454;29;45831;-84
2022/07/06 11:24:25;;;;;;;;;5.25;4.75;;;;;23.34;39.48;101927.31;4880771;29;46753;-79
2022/07/06 11:26:52;;;;;;;;;6.00;6.00;;;;;23.31;39.20;101910.75;4879133;29;46011;-80
2022/07/06 11:29:21;;;;;;;;;7.00;5.75;;;;;23.40;39.26;101907.13;4880975;29;45858;-83
2022/07/06 11:31:48;;;;;;;;;5.75;5.00;;;;;23.43;39.10;101909.47;4862186;29;45739;-82
2022/07/06 11:34:19;;;;;;;;;5.75;5.75;;;;;23.47;39.55;101908.19;4878664;29;45649;-83
2022/07/06 11:36:45;;;;;;;;;6.25;6.25;;;;;23.41;39.60;101888.25;4878947;29;46229;-83
2022/07/06 11:39:10;;;;;;;;;7.00;7.00;;;;;23.55;39.33;101894.00;4879143;29;45635;-84
2022/07/06 11:41:36;;;;;;;;;7.50;7.00;;;;;23.61;39.76;101904.03;4862225;29;45900;-85
2022/07/06 11:44:02;;;;;;;;;6.75;6.50;;;;;23.64;39.42;101904.59;4879043;29;45644;-82
2022/07/06 11:46:30;;;;;;;;;4.00;4.00;;;;;23.67;39.71;101903.41;4878571;29;45893;-82
2022/07/06 11:48:58;;;;;;;;;7.75;6.75;;;;;23.69;39.27;101898.75;4878857;29;45677;-84
2022/07/06 11:51:26;;;;;;;;;8.75;7.25;;;;;23.71;39.54;101894.03;4879762;29;45890;-82
2022/07/06 11:53:54;;;;;;;;;6.50;6.25;;;;;23.66;38.74;101875.78;4882117;29;45771;-83
2022/07/06 11:56:21;;;;;;;;;7.75;7.75;;;;;23.75;38.63;101882.03;4882550;29;45775;-83
2022/07/06 11:58:49;;;;;;;;;5.75;5.25;;;;;23.83;38.90;101880.19;4868584;29;45692;-82
2022/07/06 12:04:40;;;;;;;;;5.00;5.00;;;;;23.95;37.96;101869.16;4891345;29;45749;-80
2022/07/06 12:07:08;;;;;;;;;5.00;5.00;;;;;23.98;37.31;101871.50;4867718;29;45727;-83
2022/07/06 12:09:35;;;;;;;;;6.00;6.00;;;;;23.90;37.65;101875.03;4883042;29;45786;-82
2022/07/06 12:12:02;;;;;;;;;7.00;6.25;;;;;24.01;37.77;101869.34;4881916;29;45646;-82
2022/07/06 12:14:28;;;;;;;;;6.25;6.00;;;;;23.97;37.75;101886.72;4881665;29;45632;-83
2022/07/06 12:16:54;;;;;;;;;7.00;6.50;;;;;23.91;37.41;101878.53;4882045;29;45463;-81
2022/07/06 12:19:22;;;;;;;;;6.00;6.00;;;;;23.98;37.89;101871.50;4882628;29;45668;-83
2022/07/06 12:21:50;;;;;;;;;8.25;5.00;;;;;23.95;37.55;101870.00;4882655;29;45839;-82
2022/07/06 12:24:28;;;;;;;;;4.50;4.50;;;;;24.08;38.01;101873.03;4865594;29;48509;-82
2022/07/06 12:26:54;;;;;;;;;4.75;4.75;;;;;24.07;37.01;101863.34;4882886;29;45460;-81
2022/07/06 12:29:22;;;;;;;;;5.50;5.50;;;;;24.15;36.68;101852.63;4882462;29;45793;-82
2022/07/06 12:35:10;;;;;;;;;5.00;5.00;;;;;24.30;37.03;101876.91;4881015;29;45918;-84
2022/07/06 12:37:36;;;;;;;;;5.00;5.00;;;;;24.34;37.38;101888.16;4881122;29;46515;-82
2022/07/06 12:40:11;;;;;;;;;6.00;5.25;;;;;24.33;37.67;101868.56;4863920;29;45809;-82
2022/07/06 12:42:45;;;;;;;;;5.25;5.25;;;;;24.41;37.51;101865.03;4881508;29;45641;-82
2022/07/06 12:45:11;;;;;;;;;6.75;4.75;;;;;24.38;37.03;101843.94;4880918;29;46770;-82
2022/07/06 12:47:39;;;;;;;;;5.50;5.50;;;;;24.45;37.36;101842.28;4881046;29;45557;-82
2022/07/06 12:50:07;;;;;;;;;6.00;6.00;;;;;24.52;37.20;101836.03;4881027;29;45708;-81
2022/07/06 12:52:33;;;;;;;;;5.00;4.00;;;;;24.58;36.93;101834.53;4881215;29;45640;-81
2022/07/06 12:55:00;;;;;;;;;5.75;5.00;;;;;24.61;36.90;101858.31;4880628;29;45510;-82
2022/07/06 12:57:26;;;;;;;;;5.00;5.00;;;;;24.65;36.57;101848.94;4879196;29;48319;-80
2022/07/06 12:59:54;;;;;;;;;5.00;5.00;;;;;24.72;36.40;101847.25;4880881;29;45511;-80
2022/07/06 13:02:25;;;;;;;;;5.50;4.00;;;;;24.64;36.39;101821.28;4880909;29;45690;-79
2022/07/06 13:05:02;;;;;;;;;5.00;5.00;;;;;24.80;36.01;101832.97;4880066;29;45640;-81